Time;durP1;ratioP1;P1;durP2;ratioP2;P2;SDS_P1;SDS_P2;PMS_P1;PMS_P2;Temp;Humidity;BMP_temperature;BMP_pressure;BME280_temperature;BME280_humidity;BME280_pressure;Samples;Min_cycle;Max_cycle;Signal;HPM_P1;HPM_P2
2022/07/11 00:01:42;;;;;;;2.33;1.02;;;16.40;99.90;;;;;;5058303;28;20040;-72
2022/07/11 00:04:08;;;;;;;4.60;1.95;;;16.00;99.90;;;;;;5056167;28;20111;-72
2022/07/11 00:06:34;;;;;;;2.65;1.45;;;16.00;99.90;;;;;;5058493;28;20045;-72
2022/07/11 00:08:59;;;;;;;1.60;1.38;;;16.00;99.90;;;;;;5048875;28;20047;-73
2022/07/11 00:11:25;;;;;;;1.33;0.95;;;16.00;99.90;;;;;;5058266;28;20085;-72
2022/07/11 00:13:50;;;;;;;1.65;1.05;;;16.00;99.90;;;;;;5065707;28;20074;-72
2022/07/11 00:16:16;;;;;;;1.73;1.17;;;16.00;99.90;;;;;;5044994;28;20120;-72
2022/07/11 00:18:42;;;;;;;2.83;1.80;;;15.20;99.90;;;;;;5042641;28;20774;-72
2022/07/11 00:21:08;;;;;;;3.38;1.98;;;15.90;99.90;;;;;;5045459;28;20432;-73
2022/07/11 00:23:33;;;;;;;1.85;1.50;;;15.90;99.90;;;;;;5064836;28;20106;-73
2022/07/11 00:25:59;;;;;;;5.63;1.73;;;15.80;99.90;;;;;;5057287;28;20463;-73
2022/07/11 00:28:25;;;;;;;3.08;2.00;;;16.50;99.90;;;;;;5056440;28;20317;-73
2022/07/11 00:30:52;;;;;;;3.63;2.17;;;15.70;99.90;;;;;;5068640;28;20491;-75
2022/07/11 00:33:18;;;;;;;2.80;2.03;;;15.70;99.90;;;;;;5069371;28;20144;-73
2022/07/11 00:35:44;;;;;;;2.47;2.10;;;15.80;99.90;;;;;;5066975;28;20476;-74
2022/07/11 00:38:10;;;;;;;2.25;2.05;;;16.00;99.90;;;;;;5057752;28;20144;-73
2022/07/11 00:40:36;;;;;;;2.40;2.20;;;15.60;99.90;;;;;;5057441;28;20041;-73
2022/07/11 00:43:05;;;;;;;2.78;2.03;;;15.60;99.90;;;;;;5050106;28;20128;-73
2022/07/11 00:45:31;;;;;;;2.70;2.42;;;16.40;99.90;;;;;;5050863;28;20048;-73
2022/07/11 00:47:57;;;;;;;3.38;2.20;;;15.60;99.90;;;;;;5068471;28;20036;-72
2022/07/11 00:50:25;;;;;;;1.90;1.80;;;16.10;99.90;;;;;;5068298;28;20036;-72
2022/07/11 00:52:52;;;;;;;4.93;2.63;;;15.50;99.90;;;;;;5068301;28;20127;-73
2022/07/11 00:55:19;;;;;;;2.45;2.20;;;16.40;99.90;;;;;;5026074;28;20037;-73
2022/07/11 00:57:46;;;;;;;1.95;1.80;;;15.50;99.90;;;;;;5057265;28;20064;-73
2022/07/11 01:00:12;;;;;;;2.22;2.03;;;15.50;99.90;;;;;;5068573;28;20047;-73
2022/07/11 01:02:39;;;;;;;3.35;2.20;;;15.50;99.90;;;;;;5068434;28;20041;-72
2022/07/11 01:05:05;;;;;;;2.97;2.10;;;16.40;99.90;;;;;;5049740;28;20040;-73
2022/07/11 01:07:32;;;;;;;3.63;2.53;;;15.60;99.90;;;;;;5063695;28;20033;-72
2022/07/11 01:09:58;;;;;;;2.70;2.50;;;15.70;99.90;;;;;;5037729;28;20067;-73
2022/07/11 01:12:24;;;;;;;2.30;2.10;;;16.50;99.90;;;;;;5044160;28;20447;-73
2022/07/11 01:14:52;;;;;;;4.70;2.78;;;15.50;99.90;;;;;;5060497;28;20037;-72
2022/07/11 01:17:17;;;;;;;4.53;2.75;;;15.90;99.90;;;;;;5050448;28;20042;-73
2022/07/11 01:19:43;;;;;;;4.32;2.47;;;16.20;99.90;;;;;;5067696;28;20148;-73
2022/07/11 01:22:09;;;;;;;5.30;3.22;;;15.50;99.90;;;;;;5060346;28;20024;-74
2022/07/11 01:24:35;;;;;;;2.63;2.20;;;15.60;99.90;;;;;;5057360;28;20033;-72
2022/07/11 01:27:01;;;;;;;6.60;2.97;;;15.60;99.90;;;;;;5059141;28;20475;-72
2022/07/11 01:29:27;;;;;;;3.60;2.70;;;15.60;99.90;;;;;;5068469;28;20383;-72
2022/07/11 01:31:52;;;;;;;6.82;3.10;;;15.70;99.90;;;;;;5067722;28;20037;-72
2022/07/11 01:34:18;;;;;;;3.45;3.15;;;15.60;99.90;;;;;;5067571;28;20086;-72
2022/07/11 01:36:44;;;;;;;4.47;2.90;;;15.60;99.90;;;;;;5064421;28;20507;-72
2022/07/11 01:39:09;;;;;;;4.22;3.28;;;15.50;99.90;;;;;;5057995;28;20126;-72
2022/07/11 01:41:35;;;;;;;11.38;9.13;;;15.60;99.90;;;;;;5050234;28;20048;-72
2022/07/11 01:44:00;;;;;;;10.15;7.25;;;15.80;99.90;;;;;;5049837;28;20059;-72
2022/07/11 01:46:26;;;;;;;6.63;3.70;;;15.60;99.90;;;;;;5033130;28;20512;-72
2022/07/11 01:48:52;;;;;;;4.53;2.83;;;15.60;99.90;;;;;;5066116;28;20060;-73
2022/07/11 01:51:18;;;;;;;3.25;2.95;;;15.60;99.90;;;;;;5063933;28;20498;-73
2022/07/11 01:53:43;;;;;;;4.88;2.97;;;15.60;99.90;;;;;;5050045;28;20047;-73
2022/07/11 01:56:09;;;;;;;5.25;3.17;;;15.60;99.90;;;;;;5059622;28;20041;-73
2022/07/11 01:58:34;;;;;;;4.78;3.30;;;15.50;99.90;;;;;;5060836;28;20036;-73
2022/07/11 02:01:00;;;;;;;7.72;2.80;;;15.60;99.90;;;;;;5057962;28;20045;-73
2022/07/11 02:03:26;;;;;;;4.38;2.78;;;15.50;99.90;;;;;;5049760;28;20041;-73
2022/07/11 02:05:51;;;;;;;4.68;2.55;;;16.20;99.90;;;;;;5061239;28;20044;-72
2022/07/11 02:08:17;;;;;;;4.53;3.13;;;15.50;99.90;;;;;;5048977;28;20045;-73
2022/07/11 02:10:46;;;;;;;8.02;2.88;;;15.50;99.90;;;;;;5046234;28;20056;-72
2022/07/11 02:13:17;;;;;;;2.90;2.50;;;15.50;99.90;;;;;;5060451;28;20102;-73
2022/07/11 02:15:44;;;;;;;6.30;3.05;;;15.50;99.90;;;;;;5049050;28;20036;-73
2022/07/11 02:18:11;;;;;;;4.78;2.70;;;15.50;99.90;;;;;;5047145;28;20036;-74
2022/07/11 02:20:37;;;;;;;4.50;3.45;;;15.50;99.90;;;;;;5049819;28;20044;-72
2022/07/11 02:23:03;;;;;;;6.28;3.13;;;15.50;99.90;;;;;;5070502;28;20060;-72
2022/07/11 02:25:30;;;;;;;6.78;3.20;;;15.50;99.90;;;;;;5053631;28;20596;-73
2022/07/11 02:27:56;;;;;;;6.47;4.00;;;16.40;99.90;;;;;;5071648;28;20044;-73
2022/07/11 02:30:22;;;;;;;9.88;3.92;;;15.40;99.90;;;;;;5070931;28;20090;-73
2022/07/11 02:32:49;;;;;;;5.90;3.65;;;16.40;99.90;;;;;;5070981;28;20100;-73
2022/07/11 02:35:15;;;;;;;5.65;3.05;;;15.40;99.90;;;;;;5071206;28;20372;-73
2022/07/11 02:37:40;;;;;;;5.90;3.55;;;15.30;99.90;;;;;;5052453;28;20039;-73
2022/07/11 02:40:07;;;;;;;6.47;3.25;;;16.30;99.90;;;;;;5071056;28;20395;-73
2022/07/11 02:42:33;;;;;;;7.07;3.65;;;15.30;99.90;;;;;;5062565;28;20523;-72
2022/07/11 02:44:58;;;;;;;4.20;3.67;;;15.30;99.90;;;;;;5052575;28;20353;-72
2022/07/11 02:47:24;;;;;;;8.23;3.95;;;15.30;99.90;;;;;;5071704;28;20460;-73
2022/07/11 02:49:49;;;;;;;5.72;3.47;;;15.90;99.90;;;;;;5035432;28;20037;-72
2022/07/11 02:52:15;;;;;;;10.68;3.90;;;15.90;99.90;;;;;;5058342;28;20396;-74
2022/07/11 02:54:41;;;;;;;7.70;3.78;;;15.30;99.90;;;;;;5070976;28;20036;-72
2022/07/11 02:57:06;;;;;;;6.05;3.63;;;16.00;99.90;;;;;;5066097;28;20040;-73
2022/07/11 02:59:32;;;;;;;8.80;3.97;;;15.30;99.90;;;;;;5056643;28;20053;-73
2022/07/11 03:01:57;;;;;;;5.68;3.40;;;15.70;99.90;;;;;;5050632;28;20048;-73
2022/07/11 03:04:23;;;;;;;4.35;3.67;;;15.30;99.90;;;;;;5052013;28;20040;-73
2022/07/11 03:06:49;;;;;;;5.60;3.20;;;15.30;99.90;;;;;;5035561;28;20036;-71
2022/07/11 03:09:14;;;;;;;4.28;3.65;;;15.30;99.90;;;;;;5036094;28;20058;-72
2022/07/11 03:11:40;;;;;;;5.65;3.58;;;15.30;99.90;;;;;;5069819;28;20036;-73
2022/07/11 03:14:06;;;;;;;6.00;3.33;;;15.30;99.90;;;;;;5070706;28;20036;-72
2022/07/11 03:16:31;;;;;;;6.15;3.47;;;15.40;99.90;;;;;;5049591;28;20048;-72
2022/07/11 03:18:57;;;;;;;3.65;3.17;;;15.30;99.90;;;;;;5068224;28;20404;-72
2022/07/11 03:21:24;;;;;;;5.47;3.95;;;16.00;99.90;;;;;;5052467;28;20041;-72
2022/07/11 03:23:50;;;;;;;5.55;3.30;;;15.30;99.90;;;;;;5063228;28;20041;-71
2022/07/11 03:26:19;;;;;;;4.40;3.00;;;15.30;99.90;;;;;;5035614;28;20052;-71
2022/07/11 03:28:45;;;;;;;4.78;2.97;;;15.30;99.90;;;;;;5070321;28;20044;-73
2022/07/11 03:31:10;;;;;;;3.08;2.70;;;15.40;99.90;;;;;;5070897;28;20498;-73
2022/07/11 03:33:36;;;;;;;4.72;2.30;;;15.40;99.90;;;;;;5058031;28;20045;-73
2022/07/11 03:36:02;;;;;;;2.90;2.17;;;15.30;99.90;;;;;;5068774;28;20376;-72
2022/07/11 03:38:28;;;;;;;2.78;2.25;;;15.40;99.90;;;;;;5041936;28;20048;-72
2022/07/11 03:40:55;;;;;;;3.00;2.30;;;15.40;99.90;;;;;;5033564;28;20037;-73
2022/07/11 03:43:22;;;;;;;4.38;1.92;;;15.80;99.90;;;;;;5065521;28;20508;-72
2022/07/11 03:45:47;;;;;;;2.38;1.60;;;15.30;99.90;;;;;;5069561;28;20041;-73
2022/07/11 03:48:13;;;;;;;2.20;2.00;;;15.30;99.90;;;;;;5067742;28;20048;-71
2022/07/11 03:50:39;;;;;;;2.20;1.73;;;15.40;99.90;;;;;;5061221;28;20419;-72
2022/07/11 03:53:04;;;;;;;1.73;1.27;;;15.30;99.90;;;;;;5060872;28;20143;-72
2022/07/11 03:55:31;;;;;;;2.13;1.65;;;15.30;99.90;;;;;;5061838;28;20047;-72
2022/07/11 03:57:57;;;;;;;2.28;1.63;;;15.30;99.90;;;;;;5069995;28;20114;-72
2022/07/11 04:00:23;;;;;;;2.67;1.70;;;15.30;99.90;;;;;;5069640;28;20181;-72
2022/07/11 04:02:49;;;;;;;2.90;1.65;;;15.30;99.90;;;;;;5051759;28;20044;-73
2022/07/11 04:05:14;;;;;;;5.15;1.63;;;15.30;99.90;;;;;;5051695;28;20047;-73
2022/07/11 04:07:41;;;;;;;4.72;1.65;;;15.30;99.90;;;;;;5061085;28;20411;-73
2022/07/11 04:10:08;;;;;;;1.67;1.45;;;15.40;99.90;;;;;;5051858;28;20036;-72
2022/07/11 04:12:34;;;;;;;2.20;1.70;;;15.30;99.90;;;;;;5051781;28;20048;-72
2022/07/11 04:14:59;;;;;;;2.10;1.33;;;15.30;99.90;;;;;;5050519;28;20044;-72
2022/07/11 04:17:26;;;;;;;3.17;1.20;;;15.30;99.90;;;;;;5052049;28;20044;-73
2022/07/11 04:19:52;;;;;;;3.70;1.50;;;15.30;99.90;;;;;;5026969;28;20045;-73
2022/07/11 04:22:18;;;;;;;1.83;1.20;;;15.40;99.90;;;;;;5063080;28;20138;-73
2022/07/11 04:24:43;;;;;;;2.70;1.70;;;15.40;99.90;;;;;;5050991;28;20048;-74
2022/07/11 04:27:09;;;;;;;2.47;1.45;;;15.40;99.90;;;;;;5069506;28;20466;-73
2022/07/11 04:29:34;;;;;;;2.22;1.10;;;15.40;99.90;;;;;;5068917;28;20036;-74
2022/07/11 04:32:00;;;;;;;1.52;1.35;;;15.40;99.90;;;;;;5068826;28;20055;-72
2022/07/11 04:34:25;;;;;;;3.10;1.52;;;15.40;99.90;;;;;;5069231;28;20080;-73
2022/07/11 04:36:51;;;;;;;1.92;1.08;;;15.90;99.90;;;;;;5065826;28;20033;-73
2022/07/11 04:39:17;;;;;;;4.25;1.30;;;16.00;99.90;;;;;;5060829;28;20044;-73
2022/07/11 04:41:42;;;;;;;1.08;1.00;;;15.40;99.90;;;;;;5063448;28;20064;-73
2022/07/11 04:44:08;;;;;;;4.07;1.23;;;16.10;99.90;;;;;;5065817;28;20052;-72
2022/07/11 04:46:34;;;;;;;1.88;0.70;;;15.40;99.90;;;;;;5069286;28;20055;-73
2022/07/11 04:49:00;;;;;;;1.17;1.00;;;15.40;99.90;;;;;;5067625;28;20504;-73
2022/07/11 04:51:26;;;;;;;2.70;0.90;;;15.50;99.90;;;;;;5062819;28;20055;-73
2022/07/11 04:53:52;;;;;;;1.23;0.60;;;15.50;99.90;;;;;;5056302;28;20396;-72
2022/07/11 04:56:17;;;;;;;1.77;0.60;;;15.50;99.90;;;;;;5068510;28;20261;-73
2022/07/11 04:58:43;;;;;;;0.93;0.80;;;15.50;99.90;;;;;;5068432;28;20040;-73
2022/07/11 05:01:09;;;;;;;3.63;0.90;;;15.50;99.90;;;;;;5069121;28;20546;-74
2022/07/11 05:03:55;;;;;;;2.85;0.70;;;16.40;99.90;;;;;;5051746;28;20059;-75
2022/07/11 05:06:21;;;;;;;3.60;0.88;;;15.40;99.90;;;;;;5055703;28;20060;-72
2022/07/11 05:08:47;;;;;;;1.52;0.77;;;15.50;99.90;;;;;;5067202;28;20033;-72
2022/07/11 05:11:13;;;;;;;4.05;1.00;;;15.90;99.90;;;;;;5067999;28;20131;-72
2022/07/11 05:13:39;;;;;;;2.00;0.55;;;15.50;99.90;;;;;;5068464;28;20029;-72
2022/07/11 05:16:05;;;;;;;1.08;0.70;;;15.50;99.90;;;;;;5042274;28;20407;-72
2022/07/11 05:18:31;;;;;;;2.03;0.98;;;15.50;99.90;;;;;;5068162;28;20498;-72
2022/07/11 05:20:57;;;;;;;3.67;0.95;;;15.50;99.90;;;;;;5050691;28;20127;-73
2022/07/11 05:23:23;;;;;;;0.75;0.75;;;15.50;99.90;;;;;;5068817;28;20029;-72
2022/07/11 05:25:49;;;;;;;1.15;0.70;;;15.50;99.90;;;;;;5067451;28;20036;-73
2022/07/11 05:28:14;;;;;;;0.93;0.50;;;15.60;99.90;;;;;;5059909;28;20041;-73
2022/07/11 05:30:40;;;;;;;1.27;0.93;;;16.40;99.90;;;;;;5065342;28;20037;-72
2022/07/11 05:33:06;;;;;;;2.78;1.02;;;15.50;99.90;;;;;;5065272;28;20085;-72
2022/07/11 05:35:31;;;;;;;1.95;0.88;;;15.50;99.90;;;;;;5068204;28;20093;-72
2022/07/11 05:37:57;;;;;;;1.20;0.60;;;15.50;99.90;;;;;;5059406;28;20052;-73
2022/07/11 05:40:23;;;;;;;2.65;0.68;;;15.50;99.90;;;;;;5033466;28;20079;-73
2022/07/11 05:42:48;;;;;;;2.03;0.50;;;15.50;99.90;;;;;;5049680;28;20052;-72
2022/07/11 05:45:14;;;;;;;2.15;0.80;;;15.50;99.90;;;;;;5065761;28;20380;-73
2022/07/11 05:47:40;;;;;;;1.95;0.50;;;15.50;99.90;;;;;;5055260;28;20427;-73
2022/07/11 05:50:06;;;;;;;1.08;0.52;;;15.50;99.90;;;;;;5067880;28;20053;-73
2022/07/11 05:52:32;;;;;;;1.95;0.85;;;15.50;99.90;;;;;;5060205;28;20110;-73
2022/07/11 05:54:58;;;;;;;1.55;0.40;;;15.50;99.90;;;;;;5059014;28;20050;-72
2022/07/11 05:57:24;;;;;;;2.22;0.75;;;15.60;99.90;;;;;;5055419;28;20041;-74
2022/07/11 05:59:50;;;;;;;0.73;0.60;;;15.60;99.90;;;;;;5062749;28;20048;-73
2022/07/11 06:02:16;;;;;;;2.38;0.95;;;15.60;99.90;;;;;;5029241;28;20076;-72
2022/07/11 06:04:42;;;;;;;1.05;0.52;;;15.60;99.90;;;;;;5061509;28;20075;-72
2022/07/11 06:07:08;;;;;;;1.65;0.50;;;15.60;99.90;;;;;;5068094;28;20054;-73
2022/07/11 06:09:35;;;;;;;1.77;0.80;;;15.60;99.90;;;;;;5057681;28;20423;-73
2022/07/11 06:12:19;;;;;;;1.73;0.50;;;15.70;99.90;;;;;;5071477;28;20044;-72
2022/07/11 06:14:44;;;;;;;0.93;0.63;;;15.70;99.90;;;;;;5061363;28;20032;-73
2022/07/11 06:17:10;;;;;;;1.60;0.52;;;15.70;99.90;;;;;;5071488;28;20866;-73
2022/07/11 06:19:35;;;;;;;0.20;0.20;;;15.70;99.90;;;;;;5074609;28;20045;-73
2022/07/11 06:22:01;;;;;;;2.28;0.32;;;15.80;99.90;;;;;;5052727;28;20033;-73
2022/07/11 06:24:27;;;;;;;1.23;0.40;;;15.80;99.90;;;;;;5071533;28;20040;-73
2022/07/11 06:26:55;;;;;;;1.65;0.57;;;15.80;99.90;;;;;;5071464;28;20460;-72
2022/07/11 06:29:20;;;;;;;0.50;0.20;;;16.10;99.90;;;;;;5053140;28;20484;-74
2022/07/11 06:31:46;;;;;;;0.50;0.30;;;15.80;99.90;;;;;;5047786;28;20045;-73
2022/07/11 06:34:12;;;;;;;0.57;0.30;;;15.70;99.90;;;;;;5053522;28;20052;-73
2022/07/11 06:36:37;;;;;;;1.75;1.45;;;15.70;99.90;;;;;;5066539;28;20120;-74
2022/07/11 06:39:03;;;;;;;7.35;4.75;;;15.70;99.90;;;;;;5049625;28;20059;-74
2022/07/11 06:41:28;;;;;;;0.57;0.57;;;15.70;99.90;;;;;;5059420;28;20099;-73
2022/07/11 06:43:54;;;;;;;0.40;0.20;;;16.30;99.90;;;;;;5059175;28;20056;-73
2022/07/11 06:46:20;;;;;;;1.25;0.20;;;15.70;99.90;;;;;;5060158;28;20290;-73
2022/07/11 06:48:45;;;;;;;0.20;0.17;;;15.70;99.90;;;;;;5053620;28;20373;-73
2022/07/11 06:51:11;;;;;;;0.43;0.20;;;15.80;99.90;;;;;;5061850;28;20037;-73
2022/07/11 06:53:37;;;;;;;1.95;0.20;;;15.80;99.90;;;;;;5059404;28;20094;-73
2022/07/11 06:56:02;;;;;;;0.68;0.20;;;16.50;99.90;;;;;;5052029;28;20127;-74
2022/07/11 06:58:31;;;;;;;0.22;0.00;;;15.90;99.90;;;;;;5068601;28;20079;-73
2022/07/11 07:01:02;;;;;;;1.00;0.40;;;15.90;99.90;;;;;;5058890;28;20494;-74
2022/07/11 07:03:28;;;;;;;1.98;1.13;;;16.00;99.90;;;;;;5043921;28;20040;-74
2022/07/11 07:05:55;;;;;;;1.98;1.77;;;15.90;99.90;;;;;;5064783;28;20060;-74
2022/07/11 07:08:23;;;;;;;2.85;0.20;;;16.00;99.90;;;;;;5066465;28;20068;-73
2022/07/11 07:10:49;;;;;;;0.47;0.20;;;16.00;99.90;;;;;;5058253;28;20545;-73
2022/07/11 07:13:14;;;;;;;0.90;0.20;;;16.00;99.90;;;;;;5060432;28;20132;-73
2022/07/11 07:15:40;;;;;;;1.95;0.50;;;16.10;99.90;;;;;;5059409;28;20385;-73
2022/07/11 07:18:05;;;;;;;2.78;0.20;;;16.10;99.90;;;;;;5067352;28;20130;-73
2022/07/11 07:20:31;;;;;;;0.52;0.30;;;16.10;99.90;;;;;;5068146;28;20024;-73
2022/07/11 07:23:00;;;;;;;2.80;0.32;;;16.10;99.90;;;;;;5067705;28;20068;-73
2022/07/11 07:25:25;;;;;;;0.98;0.20;;;16.00;99.90;;;;;;5069754;28;20369;-73
2022/07/11 07:28:15;;;;;;;2.42;0.50;;;16.00;99.90;;;;;;5070632;28;20047;-73
2022/07/11 07:30:41;;;;;;;1.08;0.35;;;17.30;99.90;;;;;;5056076;28;20037;-73
2022/07/11 07:33:06;;;;;;;1.90;0.28;;;16.10;99.90;;;;;;5062730;28;20048;-73
2022/07/11 07:35:32;;;;;;;1.77;0.22;;;16.10;99.90;;;;;;5070027;28;20119;-73
2022/07/11 07:38:00;;;;;;;3.97;2.25;;;16.20;99.90;;;;;;5061328;28;20043;-73
2022/07/11 07:40:26;;;;;;;8.10;5.53;;;16.30;99.90;;;;;;5070778;28;20056;-72
2022/07/11 07:42:52;;;;;;;1.77;0.80;;;16.30;99.90;;;;;;5061689;28;20090;-73
2022/07/11 07:45:17;;;;;;;1.23;0.30;;;16.30;99.90;;;;;;5061304;28;20061;-72
2022/07/11 07:47:43;;;;;;;2.67;0.50;;;16.30;99.90;;;;;;5061630;28;20043;-73
2022/07/11 07:50:09;;;;;;;1.52;0.20;;;16.30;99.90;;;;;;5053646;28;20145;-73
2022/07/11 07:52:34;;;;;;;2.42;0.20;;;16.40;99.90;;;;;;5051692;28;20086;-73
2022/07/11 07:55:00;;;;;;;1.75;0.50;;;16.40;99.90;;;;;;5064341;28;20166;-73
2022/07/11 07:57:26;;;;;;;1.40;0.20;;;16.40;99.90;;;;;;5055250;28;20079;-73
2022/07/11 08:01:34;;;;;;;0.60;0.60;;;16.50;99.90;;;;;;5035149;28;20112;-72
2022/07/11 08:02:37;;;;;;;0.20;0.10;;;17.00;99.90;;;;;;5053863;28;20543;-73
2022/07/11 08:05:03;;;;;;;0.45;0.10;;;16.40;99.90;;;;;;5060667;28;20128;-73
2022/07/11 08:07:29;;;;;;;3.53;0.28;;;16.50;99.90;;;;;;5054094;28;20079;-73
2022/07/11 08:09:54;;;;;;;2.05;0.10;;;16.50;99.90;;;;;;5061174;28;20391;-73
2022/07/11 08:12:20;;;;;;;0.50;0.10;;;16.60;99.90;;;;;;5060176;28;20078;-73
2022/07/11 08:14:45;;;;;;;0.22;0.10;;;16.60;99.90;;;;;;5055538;28;20504;-73
2022/07/11 08:17:11;;;;;;;1.02;0.15;;;16.60;99.90;;;;;;5059591;28;20041;-73
2022/07/11 08:19:36;;;;;;;0.90;0.00;;;16.60;99.90;;;;;;5071561;28;20043;-73
2022/07/11 08:22:02;;;;;;;2.40;0.17;;;16.70;99.90;;;;;;5068851;28;20111;-73
2022/07/11 08:24:28;;;;;;;0.52;0.20;;;16.80;99.90;;;;;;5069798;28;20045;-73
2022/07/11 08:26:53;;;;;;;0.10;0.00;;;16.80;99.90;;;;;;5068615;28;20032;-73
2022/07/11 08:29:19;;;;;;;1.55;0.10;;;16.70;99.90;;;;;;5069439;28;20052;-73
2022/07/11 08:31:44;;;;;;;0.70;0.43;;;16.80;99.90;;;;;;5051353;28;20490;-73
2022/07/11 08:34:10;;;;;;;0.95;0.10;;;16.80;99.90;;;;;;5064688;28;20086;-73
2022/07/11 08:36:36;;;;;;;0.20;0.10;;;16.70;99.90;;;;;;5063251;28;20041;-73
2022/07/11 08:39:02;;;;;;;0.63;0.08;;;16.70;99.90;;;;;;5059637;28;20094;-73
2022/07/11 08:41:28;;;;;;;1.35;0.00;;;16.70;99.90;;;;;;5041387;28;20492;-74
2022/07/11 08:43:54;;;;;;;1.20;0.10;;;16.80;99.90;;;;;;5062484;28;20053;-74
2022/07/11 08:46:20;;;;;;;0.35;0.10;;;16.80;99.90;;;;;;5040895;28;20114;-74
2022/07/11 08:48:46;;;;;;;1.13;0.40;;;16.80;99.90;;;;;;5065166;28;20103;-74
2022/07/11 08:51:12;;;;;;;0.22;0.05;;;17.40;99.90;;;;;;5055014;28;20071;-74
2022/07/11 08:53:44;;;;;;;0.28;0.00;;;16.90;99.90;;;;;;5063900;28;20427;-74
2022/07/11 08:56:16;;;;;;;0.10;0.08;;;16.80;99.90;;;;;;5069373;28;20176;-74
2022/07/11 08:58:45;;;;;;;0.47;0.20;;;17.00;99.90;;;;;;5063566;28;20036;-75
2022/07/11 09:01:11;;;;;;;2.95;0.17;;;17.00;99.90;;;;;;5062127;28;20083;-75
2022/07/11 09:03:37;;;;;;;0.35;0.10;;;17.20;99.90;;;;;;5044321;28;20106;-75
2022/07/11 09:06:03;;;;;;;4.10;2.45;;;17.00;99.90;;;;;;5068610;28;20048;-74
2022/07/11 09:08:31;;;;;;;1.17;0.63;;;17.00;99.90;;;;;;5068684;28;20048;-74
2022/07/11 09:10:56;;;;;;;1.60;0.40;;;17.00;99.90;;;;;;5063943;28;20523;-74
2022/07/11 09:13:28;;;;;;;0.30;0.00;;;17.00;99.90;;;;;;5051183;28;20044;-75
2022/07/11 09:16:02;;;;;;;0.65;0.05;;;17.50;99.90;;;;;;5067826;28;20403;-74
2022/07/11 09:18:36;;;;;;;0.30;0.00;;;17.00;99.90;;;;;;5068780;28;20400;-74
2022/07/11 09:26:42;;;;;;;0.47;0.00;;;17.00;99.90;;;;;;5056962;28;20122;-73
2022/07/11 09:29:16;;;;;;;0.47;0.13;;;16.90;99.90;;;;;;5050000;28;20048;-73
2022/07/11 09:31:44;;;;;;;;;;;17.00;99.90;;;;;;5065273;28;20075;-74
2022/07/11 09:34:13;;;;;;;0.47;0.00;;;16.90;99.90;;;;;;5063253;28;19924;-74
2022/07/11 09:36:47;;;;;;;0.47;0.15;;;17.00;99.90;;;;;;5066005;28;20051;-74
2022/07/11 09:39:20;;;;;;;0.10;0.00;;;17.00;99.90;;;;;;5056100;28;20450;-74
2022/07/11 09:41:48;;;;;;;0.65;0.20;;;17.30;99.90;;;;;;5056563;28;20550;-74
2022/07/11 09:44:28;;;;;;;0.28;0.00;;;17.10;99.90;;;;;;5054291;28;20155;-74
2022/07/11 09:46:56;;;;;;;0.13;0.00;;;17.10;99.90;;;;;;5053245;28;20080;-74
2022/07/11 09:49:39;;;;;;;1.67;0.10;;;17.10;99.90;;;;;;5058211;28;20404;-74
2022/07/11 09:52:09;;;;;;;0.05;0.00;;;17.10;99.90;;;;;;5058419;28;20120;-74
2022/07/11 09:55:00;;;;;;;0.20;0.00;;;17.10;99.90;;;;;;5063031;28;20044;-74
2022/07/11 09:57:33;;;;;;;0.90;0.10;;;17.10;99.90;;;;;;5068262;28;20048;-74
2022/07/11 10:00:04;;;;;;;0.80;0.47;;;17.10;99.90;;;;;;5063995;28;20056;-74
2022/07/11 10:02:31;;;;;;;1.58;0.60;;;17.10;99.90;;;;;;5047622;28;20404;-74
2022/07/11 10:04:59;;;;;;;1.10;0.20;;;17.10;99.90;;;;;;5048777;28;20059;-74
2022/07/11 10:07:25;;;;;;;0.10;0.00;;;17.10;99.90;;;;;;5068317;28;20399;-74
2022/07/11 10:09:50;;;;;;;0.10;0.00;;;17.10;99.90;;;;;;5067869;28;20039;-74
2022/07/11 10:12:17;;;;;;;1.83;0.10;;;17.10;99.90;;;;;;5067606;28;20040;-73
2022/07/11 10:14:43;;;;;;;1.55;0.10;;;17.10;99.90;;;;;;5067518;28;20048;-74
2022/07/11 10:17:22;;;;;;;1.27;0.10;;;17.10;99.90;;;;;;5067977;28;20094;-74
2022/07/11 10:19:50;;;;;;;1.45;0.00;;;17.10;99.90;;;;;;5060935;28;20052;-74
2022/07/11 10:22:24;;;;;;;0.32;0.00;;;17.50;99.90;;;;;;5059903;28;20118;-74
2022/07/11 10:25:04;;;;;;;0.75;0.10;;;17.10;99.90;;;;;;5042470;28;20053;-75
2022/07/11 10:27:39;;;;;;;2.33;0.15;;;17.10;99.90;;;;;;5042893;28;20044;-75
2022/07/11 10:30:10;;;;;;;4.47;4.03;;;17.30;99.90;;;;;;4356979;28;10000670;-76
2022/07/11 10:32:58;;;;;;;1.75;0.20;;;17.10;99.90;;;;;;5064318;28;20289;-75
2022/07/11 10:35:23;;;;;;;1.20;0.40;;;17.20;99.90;;;;;;5057838;28;20045;-76
2022/07/11 10:37:53;;;;;;;1.65;0.10;;;17.30;99.90;;;;;;5056162;28;20052;-75
2022/07/11 10:40:40;;;;;;;0.93;0.00;;;17.40;99.90;;;;;;5042756;28;20078;-74
2022/07/11 10:43:06;;;;;;;0.52;0.10;;;17.50;99.90;;;;;;5065617;28;20353;-76
2022/07/11 10:45:55;;;;;;;0.13;0.00;;;17.50;99.90;;;;;;5069418;28;20369;-75
2022/07/11 10:48:23;;;;;;;0.47;0.10;;;17.50;99.90;;;;;;5054619;28;20045;-75
2022/07/11 10:51:01;;;;;;;1.85;0.00;;;17.50;99.90;;;;;;5059457;28;20503;-75
2022/07/11 10:53:32;;;;;;;0.20;0.20;;;17.50;99.90;;;;;;5069306;28;20111;-75
2022/07/11 10:56:06;;;;;;;0.52;0.00;;;17.50;99.90;;;;;;5057895;28;20048;-76
2022/07/11 10:58:32;;;;;;;;;;;17.60;99.90;;;;;;5065886;28;20040;-76
2022/07/11 11:01:14;;;;;;;0.10;0.00;;;17.60;99.90;;;;;;5068679;28;20004;-76
2022/07/11 11:03:41;;;;;;;0.10;0.00;;;17.70;99.90;;;;;;5051804;28;20116;-76
2022/07/11 11:06:07;;;;;;;1.13;0.00;;;18.40;99.90;;;;;;5068526;28;20055;-76
2022/07/11 11:08:33;;;;;;;1.17;1.08;;;18.30;99.90;;;;;;5067062;28;20141;-76
2022/07/11 11:11:00;;;;;;;1.58;1.48;;;18.70;99.90;;;;;;5062061;28;20040;-76
2022/07/11 11:13:26;;;;;;;0.20;0.20;;;17.80;99.90;;;;;;5063359;28;20036;-76
2022/07/11 11:15:54;;;;;;;0.28;0.10;;;17.80;99.90;;;;;;5050366;28;20484;-75
2022/07/11 11:18:23;;;;;;;0.10;0.00;;;17.80;99.90;;;;;;5067428;28;20336;-75
2022/07/11 11:20:57;;;;;;;0.25;0.00;;;17.90;99.90;;;;;;5050282;28;20474;-75
2022/07/11 11:23:24;;;;;;;0.22;0.00;;;17.90;99.90;;;;;;5070513;28;20040;-75
2022/07/11 11:25:50;;;;;;;0.13;0.00;;;17.90;99.90;;;;;;5065717;28;20036;-75
2022/07/11 11:28:21;;;;;;;0.08;0.00;;;17.90;99.90;;;;;;5068028;28;20542;-75
2022/07/11 11:30:53;;;;;;;0.43;0.10;;;17.90;99.90;;;;;;5061044;28;20040;-76
2022/07/11 11:33:19;;;;;;;1.27;0.10;;;17.90;99.90;;;;;;5069986;28;20056;-75
2022/07/11 11:35:57;;;;;;;0.80;0.00;;;17.90;99.90;;;;;;4712860;28;10000328;-74
2022/07/11 11:38:26;;;;;;;0.85;0.00;;;18.00;99.90;;;;;;5051088;28;20287;-76
2022/07/11 11:40:52;;;;;;;0.82;0.10;;;18.30;99.90;;;;;;5066079;28;20059;-74
2022/07/11 11:43:19;;;;;;;1.17;0.17;;;18.30;99.90;;;;;;5060697;28;20048;-75
2022/07/11 11:45:49;;;;;;;2.35;0.20;;;18.10;99.90;;;;;;5067486;28;20057;-75
2022/07/11 11:48:31;;;;;;;0.35;0.10;;;18.10;99.90;;;;;;5068088;28;20037;-75
2022/07/11 11:51:10;;;;;;;0.52;0.05;;;18.00;99.90;;;;;;5066697;28;20048;-75
2022/07/11 11:53:56;;;;;;;0.98;0.17;;;18.00;99.90;;;;;;5060711;28;20102;-75
2022/07/11 11:56:28;;;;;;;1.98;0.20;;;18.00;99.90;;;;;;5059577;28;20044;-74
2022/07/11 11:58:58;;;;;;;2.42;0.20;;;18.00;99.90;;;;;;5048214;28;20167;-74
2022/07/11 12:01:29;;;;;;;1.20;0.13;;;18.10;99.90;;;;;;5065244;28;20036;-74
2022/07/11 12:03:57;;;;;;;0.50;0.20;;;18.10;99.90;;;;;;5066918;28;20127;-75
2022/07/11 12:06:26;;;;;;;1.35;0.25;;;18.10;99.90;;;;;;5069369;28;20040;-75
2022/07/11 12:09:06;;;;;;;1.85;0.20;;;18.10;99.90;;;;;;5067673;28;20036;-74
2022/07/11 12:11:32;;;;;;;0.20;0.10;;;18.10;99.90;;;;;;5049821;28;20404;-75
2022/07/11 12:14:00;;;;;;;1.20;0.00;;;18.10;99.90;;;;;;5045910;28;20036;-75
2022/07/11 12:16:42;;;;;;;3.65;0.20;;;18.10;99.90;;;;;;5070045;28;20033;-74
2022/07/11 12:19:19;;;;;;;2.38;0.35;;;18.10;99.90;;;;;;5030444;28;20033;-74
2022/07/11 12:21:46;;;;;;;10.90;9.68;;;18.10;99.90;;;;;;5069571;28;20078;-74
2022/07/11 12:24:28;;;;;;;0.65;0.65;;;18.10;99.90;;;;;;5070285;28;20048;-74
2022/07/11 12:26:54;;;;;;;0.85;0.32;;;18.20;99.90;;;;;;5070012;28;20055;-76
2022/07/11 12:29:24;;;;;;;0.20;0.10;;;18.10;99.90;;;;;;5069532;28;20041;-75
2022/07/11 12:31:50;;;;;;;1.30;0.10;;;18.10;99.90;;;;;;5065149;28;20076;-76
2022/07/11 12:34:21;;;;;;;1.08;0.20;;;18.10;99.90;;;;;;5069240;28;20044;-75
2022/07/11 12:36:47;;;;;;;2.27;0.40;;;18.10;99.90;;;;;;4693159;28;10000213;-78
2022/07/11 12:39:24;;;;;;;0.65;0.10;;;19.00;99.90;;;;;;5061894;28;20306;-75
2022/07/11 12:41:55;;;;;;;0.52;0.10;;;18.20;99.90;;;;;;5045526;28;20250;-74
2022/07/11 12:45:24;;;;;;;0.50;0.10;;;18.30;99.90;;;;;;5065455;28;20507;-73
2022/07/11 12:47:24;;;;;;;2.03;0.20;;;18.30;99.90;;;;;;5041729;28;20472;-73
2022/07/11 12:49:51;;;;;;;0.85;0.20;;;18.20;99.90;;;;;;5059838;28;20487;-74
2022/07/11 12:52:23;;;;;;;4.85;0.52;;;18.20;99.90;;;;;;5066307;28;20360;-74
2022/07/11 12:54:50;;;;;;;0.10;0.10;;;18.20;99.90;;;;;;5057925;28;20436;-74
2022/07/11 12:57:21;;;;;;;0.73;0.10;;;18.20;99.90;;;;;;5039514;28;20048;-75